sensor_id;sensor_type;location;lat;lon;timestamp;P1;durP1;ratioP1;P2;durP2;ratioP2
50281;SDS011;36176;51.506;10.272;2022-08-21T00:04:19;5.50;;;5.10;;
50281;SDS011;36176;51.506;10.272;2022-08-21T00:07:10;5.33;;;4.87;;
50281;SDS011;36176;51.506;10.272;2022-08-21T00:09:45;7.30;;;6.70;;
50281;SDS011;36176;51.506;10.272;2022-08-21T00:12:18;9.63;;;8.03;;
50281;SDS011;36176;51.506;10.272;2022-08-21T00:19:07;5.77;;;5.37;;
50281;SDS011;36176;51.506;10.272;2022-08-21T00:21:41;5.67;;;5.27;;
50281;SDS011;36176;51.506;10.272;2022-08-21T00:24:56;4.87;;;4.47;;
50281;SDS011;36176;51.506;10.272;2022-08-21T00:28:19;6.23;;;5.63;;
50281;SDS011;36176;51.506;10.272;2022-08-21T00:30:54;8.03;;;7.33;;
50281;SDS011;36176;51.506;10.272;2022-08-21T00:38:02;7.33;;;6.63;;
50281;SDS011;36176;51.506;10.272;2022-08-21T00:44:26;9.73;;;8.30;;
50281;SDS011;36176;51.506;10.272;2022-08-21T00:47:06;11.67;;;8.63;;
50281;SDS011;36176;51.506;10.272;2022-08-21T00:49:36;8.47;;;7.30;;
50281;SDS011;36176;51.506;10.272;2022-08-21T01:16:31;16.33;;;12.97;;
50281;SDS011;36176;51.506;10.272;2022-08-21T01:57:07;9.33;;;7.93;;
50281;SDS011;36176;51.506;10.272;2022-08-21T02:00:22;11.67;;;9.70;;
50281;SDS011;36176;51.506;10.272;2022-08-21T02:20:44;9.83;;;8.70;;
50281;SDS011;36176;51.506;10.272;2022-08-21T02:24:23;13.07;;;10.20;;
50281;SDS011;36176;51.506;10.272;2022-08-21T02:40:49;7.27;;;6.57;;
50281;SDS011;36176;51.506;10.272;2022-08-21T03:24:04;42.33;;;16.43;;
50281;SDS011;36176;51.506;10.272;2022-08-21T04:33:35;40.90;;;19.77;;
50281;SDS011;36176;51.506;10.272;2022-08-21T04:36:03;51.93;;;20.70;;
50281;SDS011;36176;51.506;10.272;2022-08-21T04:38:33;49.03;;;17.80;;
50281;SDS011;36176;51.506;10.272;2022-08-21T04:41:03;213.13;;;31.37;;
50281;SDS011;36176;51.506;10.272;2022-08-21T04:43:32;186.63;;;26.73;;
50281;SDS011;36176;51.506;10.272;2022-08-21T04:46:05;42.20;;;16.13;;
50281;SDS011;36176;51.506;10.272;2022-08-21T04:48:39;194.83;;;26.60;;
50281;SDS011;36176;51.506;10.272;2022-08-21T04:51:08;16.53;;;11.83;;
50281;SDS011;36176;51.506;10.272;2022-08-21T04:53:48;27.67;;;13.40;;
50281;SDS011;36176;51.506;10.272;2022-08-21T04:56:42;51.63;;;21.53;;
50281;SDS011;36176;51.506;10.272;2022-08-21T04:59:21;156.07;;;24.67;;
50281;SDS011;36176;51.506;10.272;2022-08-21T05:02:10;74.37;;;21.33;;
50281;SDS011;36176;51.506;10.272;2022-08-21T05:04:42;48.40;;;19.27;;
50281;SDS011;36176;51.506;10.272;2022-08-21T05:07:16;96.90;;;24.20;;
50281;SDS011;36176;51.506;10.272;2022-08-21T05:10:08;59.37;;;19.70;;
50281;SDS011;36176;51.506;10.272;2022-08-21T05:12:38;108.63;;;29.67;;
50281;SDS011;36176;51.506;10.272;2022-08-21T05:15:06;44.93;;;23.23;;
50281;SDS011;36176;51.506;10.272;2022-08-21T05:17:39;66.13;;;26.33;;
50281;SDS011;36176;51.506;10.272;2022-08-21T05:20:08;50.73;;;23.13;;
50281;SDS011;36176;51.506;10.272;2022-08-21T05:22:37;24.13;;;18.97;;
50281;SDS011;36176;51.506;10.272;2022-08-21T05:25:05;28.90;;;19.50;;
50281;SDS011;36176;51.506;10.272;2022-08-21T05:27:37;13.07;;;11.70;;
50281;SDS011;36176;51.506;10.272;2022-08-21T05:30:08;66.33;;;19.00;;
50281;SDS011;36176;51.506;10.272;2022-08-21T05:32:36;15.17;;;13.57;;
50281;SDS011;36176;51.506;10.272;2022-08-21T05:35:05;33.07;;;16.23;;
50281;SDS011;36176;51.506;10.272;2022-08-21T05:37:34;35.77;;;20.30;;
50281;SDS011;36176;51.506;10.272;2022-08-21T05:40:02;43.37;;;17.40;;
50281;SDS011;36176;51.506;10.272;2022-08-21T05:42:52;82.27;;;23.40;;
50281;SDS011;36176;51.506;10.272;2022-08-21T05:45:23;65.77;;;17.57;;
50281;SDS011;36176;51.506;10.272;2022-08-21T05:48:22;34.87;;;22.10;;
50281;SDS011;36176;51.506;10.272;2022-08-21T05:51:03;64.43;;;25.67;;
50281;SDS011;36176;51.506;10.272;2022-08-21T05:53:41;41.97;;;23.23;;
50281;SDS011;36176;51.506;10.272;2022-08-21T05:56:21;34.80;;;19.40;;
50281;SDS011;36176;51.506;10.272;2022-08-21T05:59:45;41.47;;;23.57;;
50281;SDS011;36176;51.506;10.272;2022-08-21T06:03:30;29.77;;;19.57;;
50281;SDS011;36176;51.506;10.272;2022-08-21T06:06:28;23.17;;;18.60;;
50281;SDS011;36176;51.506;10.272;2022-08-21T06:09:01;26.03;;;17.63;;
50281;SDS011;36176;51.506;10.272;2022-08-21T06:11:31;44.20;;;25.98;;
50281;SDS011;36176;51.506;10.272;2022-08-21T06:13:59;21.90;;;15.87;;
50281;SDS011;36176;51.506;10.272;2022-08-21T06:16:26;18.88;;;16.70;;
50281;SDS011;36176;51.506;10.272;2022-08-21T06:18:54;23.15;;;16.90;;
50281;SDS011;36176;51.506;10.272;2022-08-21T06:21:36;21.57;;;16.67;;
50281;SDS011;36176;51.506;10.272;2022-08-21T06:42:53;14.43;;;13.02;;
50281;SDS011;36176;51.506;10.272;2022-08-21T06:45:21;18.98;;;16.67;;
50281;SDS011;36176;51.506;10.272;2022-08-21T06:48:01;13.50;;;12.10;;
50281;SDS011;36176;51.506;10.272;2022-08-21T06:50:47;15.73;;;13.43;;
50281;SDS011;36176;51.506;10.272;2022-08-21T06:53:23;14.60;;;13.00;;
50281;SDS011;36176;51.506;10.272;2022-08-21T06:59:05;14.85;;;13.35;;
50281;SDS011;36176;51.506;10.272;2022-08-21T07:01:37;13.50;;;12.30;;
50281;SDS011;36176;51.506;10.272;2022-08-21T07:04:04;15.68;;;14.00;;
50281;SDS011;36176;51.506;10.272;2022-08-21T07:06:31;13.35;;;11.95;;
50281;SDS011;36176;51.506;10.272;2022-08-21T07:08:59;13.43;;;11.82;;
50281;SDS011;36176;51.506;10.272;2022-08-21T07:11:28;11.57;;;10.32;;
50281;SDS011;36176;51.506;10.272;2022-08-21T07:13:55;11.93;;;10.68;;
50281;SDS011;36176;51.506;10.272;2022-08-21T07:16:23;14.35;;;10.77;;
50281;SDS011;36176;51.506;10.272;2022-08-21T07:18:50;12.95;;;11.75;;
50281;SDS011;36176;51.506;10.272;2022-08-21T07:21:18;11.90;;;10.75;;
50281;SDS011;36176;51.506;10.272;2022-08-21T07:23:51;11.27;;;10.18;;
50281;SDS011;36176;51.506;10.272;2022-08-21T07:26:21;12.35;;;11.15;;
50281;SDS011;36176;51.506;10.272;2022-08-21T07:28:50;12.40;;;11.07;;
50281;SDS011;36176;51.506;10.272;2022-08-21T07:31:18;12.05;;;10.85;;
50281;SDS011;36176;51.506;10.272;2022-08-21T07:33:46;12.23;;;11.23;;
50281;SDS011;36176;51.506;10.272;2022-08-21T07:36:14;11.93;;;10.82;;
50281;SDS011;36176;51.506;10.272;2022-08-21T07:38:42;9.55;;;8.52;;
50281;SDS011;36176;51.506;10.272;2022-08-21T07:41:13;10.18;;;9.27;;
50281;SDS011;36176;51.506;10.272;2022-08-21T07:43:43;9.10;;;8.15;;
50281;SDS011;36176;51.506;10.272;2022-08-21T07:46:12;9.00;;;6.85;;
50281;SDS011;36176;51.506;10.272;2022-08-21T07:48:40;8.85;;;7.70;;
50281;SDS011;36176;51.506;10.272;2022-08-21T07:51:09;8.68;;;7.88;;
50281;SDS011;36176;51.506;10.272;2022-08-21T07:53:40;8.05;;;7.25;;
50281;SDS011;36176;51.506;10.272;2022-08-21T07:56:09;11.48;;;7.28;;
50281;SDS011;36176;51.506;10.272;2022-08-21T07:58:37;8.57;;;7.60;;
50281;SDS011;36176;51.506;10.272;2022-08-21T08:01:05;7.20;;;6.43;;
50281;SDS011;36176;51.506;10.272;2022-08-21T08:03:33;8.50;;;6.18;;
50281;SDS011;36176;51.506;10.272;2022-08-21T08:06:01;8.00;;;6.03;;
50281;SDS011;36176;51.506;10.272;2022-08-21T08:08:31;10.27;;;6.82;;
50281;SDS011;36176;51.506;10.272;2022-08-21T08:10:58;8.48;;;6.07;;
50281;SDS011;36176;51.506;10.272;2022-08-21T08:13:27;6.78;;;4.88;;
50281;SDS011;36176;51.506;10.272;2022-08-21T08:15:55;6.85;;;3.78;;
50281;SDS011;36176;51.506;10.272;2022-08-21T08:18:22;6.38;;;4.32;;
50281;SDS011;36176;51.506;10.272;2022-08-21T08:20:50;5.47;;;4.97;;
50281;SDS011;36176;51.506;10.272;2022-08-21T08:23:17;7.85;;;4.47;;
50281;SDS011;36176;51.506;10.272;2022-08-21T08:28:55;7.30;;;5.88;;
50281;SDS011;36176;51.506;10.272;2022-08-21T08:31:24;6.68;;;6.05;;
50281;SDS011;36176;51.506;10.272;2022-08-21T08:33:52;6.65;;;3.83;;
50281;SDS011;36176;51.506;10.272;2022-08-21T08:36:30;6.03;;;2.90;;
50281;SDS011;36176;51.506;10.272;2022-08-21T08:39:02;4.60;;;3.38;;
50281;SDS011;36176;51.506;10.272;2022-08-21T08:41:31;5.82;;;3.15;;
50281;SDS011;36176;51.506;10.272;2022-08-21T08:44:02;7.30;;;4.47;;
50281;SDS011;36176;51.506;10.272;2022-08-21T08:46:34;6.20;;;4.07;;
50281;SDS011;36176;51.506;10.272;2022-08-21T08:54:37;7.65;;;3.08;;
50281;SDS011;36176;51.506;10.272;2022-08-21T08:57:14;6.50;;;5.90;;
50281;SDS011;36176;51.506;10.272;2022-08-21T08:59:45;6.82;;;4.70;;
50281;SDS011;36176;51.506;10.272;2022-08-21T09:02:16;13.65;;;12.68;;
50281;SDS011;36176;51.506;10.272;2022-08-21T09:04:45;5.68;;;2.80;;
50281;SDS011;36176;51.506;10.272;2022-08-21T09:10:21;5.88;;;2.63;;
50281;SDS011;36176;51.506;10.272;2022-08-21T09:12:56;6.90;;;3.55;;
50281;SDS011;36176;51.506;10.272;2022-08-21T09:18:21;6.00;;;2.60;;
50281;SDS011;36176;51.506;10.272;2022-08-21T09:26:21;5.93;;;3.10;;
50281;SDS011;36176;51.506;10.272;2022-08-21T09:28:54;6.35;;;2.58;;
50281;SDS011;36176;51.506;10.272;2022-08-21T09:34:04;6.10;;;2.70;;
50281;SDS011;36176;51.506;10.272;2022-08-21T09:36:39;4.25;;;2.50;;
50281;SDS011;36176;51.506;10.272;2022-08-21T09:39:09;7.60;;;2.63;;
50281;SDS011;36176;51.506;10.272;2022-08-21T09:41:38;4.80;;;2.60;;
50281;SDS011;36176;51.506;10.272;2022-08-21T09:44:07;6.90;;;3.47;;
50281;SDS011;36176;51.506;10.272;2022-08-21T09:46:35;6.68;;;2.85;;
50281;SDS011;36176;51.506;10.272;2022-08-21T09:49:03;7.38;;;3.33;;
50281;SDS011;36176;51.506;10.272;2022-08-21T09:51:39;8.48;;;3.85;;
50281;SDS011;36176;51.506;10.272;2022-08-21T09:54:19;6.60;;;3.10;;
50281;SDS011;36176;51.506;10.272;2022-08-21T10:00:08;6.78;;;2.72;;
50281;SDS011;36176;51.506;10.272;2022-08-21T10:02:42;6.95;;;2.80;;
50281;SDS011;36176;51.506;10.272;2022-08-21T10:08:31;6.18;;;3.00;;
50281;SDS011;36176;51.506;10.272;2022-08-21T10:11:05;7.22;;;4.63;;
50281;SDS011;36176;51.506;10.272;2022-08-21T10:19:12;9.88;;;6.38;;
50281;SDS011;36176;51.506;10.272;2022-08-21T10:29:55;6.32;;;4.85;;
50281;SDS011;36176;51.506;10.272;2022-08-21T10:32:37;6.85;;;3.88;;
50281;SDS011;36176;51.506;10.272;2022-08-21T10:35:27;10.13;;;5.22;;
50281;SDS011;36176;51.506;10.272;2022-08-21T10:41:08;7.30;;;3.78;;
50281;SDS011;36176;51.506;10.272;2022-08-21T10:49:25;7.82;;;3.67;;
50281;SDS011;36176;51.506;10.272;2022-08-21T10:57:56;6.07;;;3.03;;
50281;SDS011;36176;51.506;10.272;2022-08-21T11:01:09;9.45;;;3.75;;
50281;SDS011;36176;51.506;10.272;2022-08-21T11:03:33;7.75;;;2.95;;
50281;SDS011;36176;51.506;10.272;2022-08-21T11:06:13;5.18;;;3.75;;
50281;SDS011;36176;51.506;10.272;2022-08-21T11:08:45;5.43;;;3.63;;
50281;SDS011;36176;51.506;10.272;2022-08-21T11:11:36;9.43;;;4.00;;
50281;SDS011;36176;51.506;10.272;2022-08-21T11:17:58;7.78;;;2.83;;
50281;SDS011;36176;51.506;10.272;2022-08-21T11:20:42;6.43;;;2.88;;
50281;SDS011;36176;51.506;10.272;2022-08-21T11:26:10;6.20;;;4.63;;
50281;SDS011;36176;51.506;10.272;2022-08-21T11:28:49;4.47;;;3.10;;
50281;SDS011;36176;51.506;10.272;2022-08-21T11:34:47;5.05;;;2.58;;
50281;SDS011;36176;51.506;10.272;2022-08-21T11:37:30;5.65;;;2.95;;
50281;SDS011;36176;51.506;10.272;2022-08-21T11:40:31;5.68;;;2.50;;
50281;SDS011;36176;51.506;10.272;2022-08-21T11:43:25;6.35;;;3.17;;
50281;SDS011;36176;51.506;10.272;2022-08-21T11:51:57;6.75;;;2.65;;
50281;SDS011;36176;51.506;10.272;2022-08-21T11:57:12;7.43;;;3.25;;
50281;SDS011;36176;51.506;10.272;2022-08-21T12:00:22;7.15;;;3.00;;
50281;SDS011;36176;51.506;10.272;2022-08-21T12:02:58;4.38;;;2.40;;
50281;SDS011;36176;51.506;10.272;2022-08-21T12:05:35;4.15;;;2.28;;
50281;SDS011;36176;51.506;10.272;2022-08-21T12:08:10;6.72;;;2.55;;
50281;SDS011;36176;51.506;10.272;2022-08-21T12:10:45;5.53;;;3.20;;
50281;SDS011;36176;51.506;10.272;2022-08-21T12:13:26;5.10;;;2.38;;
50281;SDS011;36176;51.506;10.272;2022-08-21T12:16:15;5.00;;;2.47;;
50281;SDS011;36176;51.506;10.272;2022-08-21T12:19:03;4.90;;;2.42;;
50281;SDS011;36176;51.506;10.272;2022-08-21T12:26:57;4.72;;;2.50;;
50281;SDS011;36176;51.506;10.272;2022-08-21T12:29:27;4.85;;;2.20;;
50281;SDS011;36176;51.506;10.272;2022-08-21T12:32:03;4.22;;;2.00;;
50281;SDS011;36176;51.506;10.272;2022-08-21T12:34:34;5.32;;;2.50;;
50281;SDS011;36176;51.506;10.272;2022-08-21T12:40:18;5.45;;;2.42;;
50281;SDS011;36176;51.506;10.272;2022-08-21T12:42:52;5.50;;;2.45;;
50281;SDS011;36176;51.506;10.272;2022-08-21T12:45:29;4.20;;;2.08;;
50281;SDS011;36176;51.506;10.272;2022-08-21T12:48:10;4.70;;;1.90;;
50281;SDS011;36176;51.506;10.272;2022-08-21T12:50:52;3.88;;;2.65;;
50281;SDS011;36176;51.506;10.272;2022-08-21T12:56:02;4.60;;;2.40;;
50281;SDS011;36176;51.506;10.272;2022-08-21T12:58:30;3.85;;;2.85;;
50281;SDS011;36176;51.506;10.272;2022-08-21T13:03:34;4.20;;;2.42;;
50281;SDS011;36176;51.506;10.272;2022-08-21T13:06:04;3.13;;;1.77;;
50281;SDS011;36176;51.506;10.272;2022-08-21T13:08:35;6.80;;;5.65;;
50281;SDS011;36176;51.506;10.272;2022-08-21T13:11:08;4.07;;;2.15;;
50281;SDS011;36176;51.506;10.272;2022-08-21T13:13:41;5.00;;;2.22;;
50281;SDS011;36176;51.506;10.272;2022-08-21T13:16:26;3.80;;;2.10;;
50281;SDS011;36176;51.506;10.272;2022-08-21T13:18:59;4.22;;;2.40;;
50281;SDS011;36176;51.506;10.272;2022-08-21T13:21:38;3.67;;;1.75;;
50281;SDS011;36176;51.506;10.272;2022-08-21T13:24:17;3.17;;;2.88;;
50281;SDS011;36176;51.506;10.272;2022-08-21T13:27:19;3.55;;;1.88;;
50281;SDS011;36176;51.506;10.272;2022-08-21T13:29:59;5.35;;;3.67;;
50281;SDS011;36176;51.506;10.272;2022-08-21T13:32:29;2.55;;;1.67;;
50281;SDS011;36176;51.506;10.272;2022-08-21T13:35:07;3.03;;;1.70;;
50281;SDS011;36176;51.506;10.272;2022-08-21T13:37:37;3.03;;;1.85;;
50281;SDS011;36176;51.506;10.272;2022-08-21T13:40:07;2.15;;;1.40;;
50281;SDS011;36176;51.506;10.272;2022-08-21T13:42:39;3.33;;;1.60;;
50281;SDS011;36176;51.506;10.272;2022-08-21T13:45:13;2.72;;;1.65;;
50281;SDS011;36176;51.506;10.272;2022-08-21T13:48:02;3.17;;;1.70;;
50281;SDS011;36176;51.506;10.272;2022-08-21T13:50:50;4.07;;;1.80;;
50281;SDS011;36176;51.506;10.272;2022-08-21T13:56:21;2.78;;;1.80;;
50281;SDS011;36176;51.506;10.272;2022-08-21T13:58:56;2.53;;;1.60;;
50281;SDS011;36176;51.506;10.272;2022-08-21T14:01:36;2.92;;;1.70;;
50281;SDS011;36176;51.506;10.272;2022-08-21T14:04:07;3.95;;;1.85;;
50281;SDS011;36176;51.506;10.272;2022-08-21T14:06:46;5.82;;;1.98;;
50281;SDS011;36176;51.506;10.272;2022-08-21T14:09:21;5.10;;;1.80;;
50281;SDS011;36176;51.506;10.272;2022-08-21T14:12:11;2.60;;;2.13;;
50281;SDS011;36176;51.506;10.272;2022-08-21T14:14:49;2.92;;;1.85;;
50281;SDS011;36176;51.506;10.272;2022-08-21T14:17:36;2.78;;;1.90;;
50281;SDS011;36176;51.506;10.272;2022-08-21T14:20:07;16.42;;;2.13;;
50281;SDS011;36176;51.506;10.272;2022-08-21T14:22:43;33.50;;;2.95;;
50281;SDS011;36176;51.506;10.272;2022-08-21T14:25:13;6.32;;;1.60;;
50281;SDS011;36176;51.506;10.272;2022-08-21T14:30:45;2.45;;;1.50;;
50281;SDS011;36176;51.506;10.272;2022-08-21T14:33:27;2.83;;;1.75;;
50281;SDS011;36176;51.506;10.272;2022-08-21T14:35:57;3.80;;;1.70;;
50281;SDS011;36176;51.506;10.272;2022-08-21T14:38:43;2.60;;;1.80;;
50281;SDS011;36176;51.506;10.272;2022-08-21T14:41:29;2.10;;;1.50;;
50281;SDS011;36176;51.506;10.272;2022-08-21T14:44:06;3.88;;;1.70;;
50281;SDS011;36176;51.506;10.272;2022-08-21T14:46:36;2.50;;;1.40;;
50281;SDS011;36176;51.506;10.272;2022-08-21T14:49:25;2.75;;;1.60;;
50281;SDS011;36176;51.506;10.272;2022-08-21T14:51:55;3.15;;;1.63;;
50281;SDS011;36176;51.506;10.272;2022-08-21T14:54:25;3.13;;;1.60;;
50281;SDS011;36176;51.506;10.272;2022-08-21T14:56:58;2.95;;;1.42;;
50281;SDS011;36176;51.506;10.272;2022-08-21T14:59:28;3.42;;;1.60;;
50281;SDS011;36176;51.506;10.272;2022-08-21T15:01:59;3.13;;;1.50;;
50281;SDS011;36176;51.506;10.272;2022-08-21T15:04:27;3.35;;;1.70;;
50281;SDS011;36176;51.506;10.272;2022-08-21T15:06:54;2.28;;;1.40;;
50281;SDS011;36176;51.506;10.272;2022-08-21T15:09:22;2.45;;;1.60;;
50281;SDS011;36176;51.506;10.272;2022-08-21T15:11:51;2.78;;;1.38;;
50281;SDS011;36176;51.506;10.272;2022-08-21T15:14:21;3.95;;;1.35;;
50281;SDS011;36176;51.506;10.272;2022-08-21T15:16:51;3.67;;;3.38;;
50281;SDS011;36176;51.506;10.272;2022-08-21T15:19:19;2.80;;;1.50;;
50281;SDS011;36176;51.506;10.272;2022-08-21T15:21:46;2.03;;;1.38;;
50281;SDS011;36176;51.506;10.272;2022-08-21T15:24:13;2.03;;;1.42;;
50281;SDS011;36176;51.506;10.272;2022-08-21T15:26:40;1.65;;;1.40;;
50281;SDS011;36176;51.506;10.272;2022-08-21T15:29:08;3.67;;;1.30;;
50281;SDS011;36176;51.506;10.272;2022-08-21T15:31:36;2.67;;;1.48;;
50281;SDS011;36176;51.506;10.272;2022-08-21T15:34:15;4.13;;;1.80;;
50281;SDS011;36176;51.506;10.272;2022-08-21T15:36:43;2.28;;;1.48;;
50281;SDS011;36176;51.506;10.272;2022-08-21T15:39:10;2.55;;;1.50;;
50281;SDS011;36176;51.506;10.272;2022-08-21T15:41:37;2.05;;;1.42;;
50281;SDS011;36176;51.506;10.272;2022-08-21T15:44:04;1.70;;;1.23;;
50281;SDS011;36176;51.506;10.272;2022-08-21T15:46:32;2.65;;;1.70;;
50281;SDS011;36176;51.506;10.272;2022-08-21T15:48:59;2.92;;;1.60;;
50281;SDS011;36176;51.506;10.272;2022-08-21T15:51:26;2.53;;;1.70;;
50281;SDS011;36176;51.506;10.272;2022-08-21T15:53:53;2.75;;;1.45;;
50281;SDS011;36176;51.506;10.272;2022-08-21T15:56:23;4.88;;;1.75;;
50281;SDS011;36176;51.506;10.272;2022-08-21T15:58:52;2.17;;;1.73;;
50281;SDS011;36176;51.506;10.272;2022-08-21T16:01:26;4.85;;;1.60;;
50281;SDS011;36176;51.506;10.272;2022-08-21T16:04:01;3.35;;;1.85;;
50281;SDS011;36176;51.506;10.272;2022-08-21T16:06:30;2.22;;;1.50;;
50281;SDS011;36176;51.506;10.272;2022-08-21T16:09:18;2.13;;;1.60;;
50281;SDS011;36176;51.506;10.272;2022-08-21T16:11:45;2.90;;;1.63;;
50281;SDS011;36176;51.506;10.272;2022-08-21T16:14:15;2.45;;;1.40;;
50281;SDS011;36176;51.506;10.272;2022-08-21T16:16:43;3.22;;;1.40;;
50281;SDS011;36176;51.506;10.272;2022-08-21T16:19:10;2.55;;;1.50;;
50281;SDS011;36176;51.506;10.272;2022-08-21T16:21:39;3.25;;;1.73;;
50281;SDS011;36176;51.506;10.272;2022-08-21T16:24:07;3.85;;;1.70;;
50281;SDS011;36176;51.506;10.272;2022-08-21T16:26:34;4.10;;;1.60;;
50281;SDS011;36176;51.506;10.272;2022-08-21T16:29:02;3.22;;;1.38;;
50281;SDS011;36176;51.506;10.272;2022-08-21T16:31:33;4.05;;;1.70;;
50281;SDS011;36176;51.506;10.272;2022-08-21T16:34:00;3.70;;;1.90;;
50281;SDS011;36176;51.506;10.272;2022-08-21T16:36:28;2.67;;;1.70;;
50281;SDS011;36176;51.506;10.272;2022-08-21T16:38:56;2.55;;;1.80;;
50281;SDS011;36176;51.506;10.272;2022-08-21T16:41:25;3.22;;;1.60;;
50281;SDS011;36176;51.506;10.272;2022-08-21T16:43:56;3.75;;;1.80;;
50281;SDS011;36176;51.506;10.272;2022-08-21T16:46:31;2.30;;;2.10;;
50281;SDS011;36176;51.506;10.272;2022-08-21T16:49:01;4.13;;;2.40;;
50281;SDS011;36176;51.506;10.272;2022-08-21T16:51:28;3.35;;;2.05;;
50281;SDS011;36176;51.506;10.272;2022-08-21T16:53:57;6.65;;;6.00;;
50281;SDS011;36176;51.506;10.272;2022-08-21T16:56:44;2.75;;;1.70;;
50281;SDS011;36176;51.506;10.272;2022-08-21T16:59:13;3.38;;;1.60;;
50281;SDS011;36176;51.506;10.272;2022-08-21T17:02:02;2.80;;;1.98;;
50281;SDS011;36176;51.506;10.272;2022-08-21T17:04:29;4.20;;;2.10;;
50281;SDS011;36176;51.506;10.272;2022-08-21T17:06:56;3.72;;;1.98;;
50281;SDS011;36176;51.506;10.272;2022-08-21T17:09:24;2.47;;;1.58;;
50281;SDS011;36176;51.506;10.272;2022-08-21T17:11:53;3.20;;;2.30;;
50281;SDS011;36176;51.506;10.272;2022-08-21T17:14:22;2.28;;;1.77;;
50281;SDS011;36176;51.506;10.272;2022-08-21T17:16:53;5.45;;;3.03;;
50281;SDS011;36176;51.506;10.272;2022-08-21T17:19:22;3.10;;;1.80;;
50281;SDS011;36176;51.506;10.272;2022-08-21T17:21:49;2.85;;;1.80;;
50281;SDS011;36176;51.506;10.272;2022-08-21T17:24:17;2.58;;;1.88;;
50281;SDS011;36176;51.506;10.272;2022-08-21T17:26:44;2.50;;;1.73;;
50281;SDS011;36176;51.506;10.272;2022-08-21T17:29:11;2.88;;;1.70;;
50281;SDS011;36176;51.506;10.272;2022-08-21T17:31:42;2.30;;;1.95;;
50281;SDS011;36176;51.506;10.272;2022-08-21T17:34:10;5.65;;;1.88;;
50281;SDS011;36176;51.506;10.272;2022-08-21T17:36:38;3.63;;;1.67;;
50281;SDS011;36176;51.506;10.272;2022-08-21T17:39:06;2.50;;;1.60;;
50281;SDS011;36176;51.506;10.272;2022-08-21T17:41:33;3.58;;;1.60;;
50281;SDS011;36176;51.506;10.272;2022-08-21T17:44:04;3.88;;;1.60;;
50281;SDS011;36176;51.506;10.272;2022-08-21T17:46:35;4.10;;;2.10;;
50281;SDS011;36176;51.506;10.272;2022-08-21T17:49:04;3.40;;;2.40;;
50281;SDS011;36176;51.506;10.272;2022-08-21T17:51:33;3.60;;;2.08;;
50281;SDS011;36176;51.506;10.272;2022-08-21T17:54:00;2.95;;;1.90;;
50281;SDS011;36176;51.506;10.272;2022-08-21T17:56:29;2.10;;;1.40;;
50281;SDS011;36176;51.506;10.272;2022-08-21T17:58:58;2.88;;;1.60;;
50281;SDS011;36176;51.506;10.272;2022-08-21T18:01:26;2.00;;;1.58;;
50281;SDS011;36176;51.506;10.272;2022-08-21T18:04:03;4.38;;;1.65;;
50281;SDS011;36176;51.506;10.272;2022-08-21T18:06:30;3.80;;;1.77;;
50281;SDS011;36176;51.506;10.272;2022-08-21T18:08:58;1.67;;;1.23;;
50281;SDS011;36176;51.506;10.272;2022-08-21T18:11:26;2.08;;;1.40;;
50281;SDS011;36176;51.506;10.272;2022-08-21T18:13:56;2.55;;;1.45;;
50281;SDS011;36176;51.506;10.272;2022-08-21T18:16:33;1.60;;;1.50;;
50281;SDS011;36176;51.506;10.272;2022-08-21T18:19:01;1.60;;;1.10;;
50281;SDS011;36176;51.506;10.272;2022-08-21T18:21:33;2.30;;;1.33;;
50281;SDS011;36176;51.506;10.272;2022-08-21T18:24:00;2.38;;;1.33;;
50281;SDS011;36176;51.506;10.272;2022-08-21T18:26:28;3.08;;;1.33;;
50281;SDS011;36176;51.506;10.272;2022-08-21T18:28:58;2.03;;;1.20;;
50281;SDS011;36176;51.506;10.272;2022-08-21T18:31:27;1.55;;;1.25;;
50281;SDS011;36176;51.506;10.272;2022-08-21T18:33:57;2.13;;;1.40;;
50281;SDS011;36176;51.506;10.272;2022-08-21T18:36:29;3.08;;;1.10;;
50281;SDS011;36176;51.506;10.272;2022-08-21T18:38:56;2.58;;;1.27;;
50281;SDS011;36176;51.506;10.272;2022-08-21T18:41:44;1.90;;;1.50;;
50281;SDS011;36176;51.506;10.272;2022-08-21T18:44:16;2.47;;;1.50;;
50281;SDS011;36176;51.506;10.272;2022-08-21T18:46:49;1.65;;;1.30;;
50281;SDS011;36176;51.506;10.272;2022-08-21T18:49:19;1.73;;;1.30;;
50281;SDS011;36176;51.506;10.272;2022-08-21T18:51:47;1.52;;;1.40;;
50281;SDS011;36176;51.506;10.272;2022-08-21T18:54:15;3.20;;;1.65;;
50281;SDS011;36176;51.506;10.272;2022-08-21T18:56:43;3.65;;;1.42;;
50281;SDS011;36176;51.506;10.272;2022-08-21T18:59:11;4.38;;;1.98;;
50281;SDS011;36176;51.506;10.272;2022-08-21T19:01:41;2.63;;;1.80;;
50281;SDS011;36176;51.506;10.272;2022-08-21T19:04:13;3.65;;;2.58;;
50281;SDS011;36176;51.506;10.272;2022-08-21T19:07:00;2.38;;;2.00;;
50281;SDS011;36176;51.506;10.272;2022-08-21T19:09:28;3.03;;;2.60;;
50281;SDS011;36176;51.506;10.272;2022-08-21T19:11:55;4.70;;;4.15;;
50281;SDS011;36176;51.506;10.272;2022-08-21T19:14:23;4.65;;;4.25;;
50281;SDS011;36176;51.506;10.272;2022-08-21T19:16:50;5.80;;;5.00;;
50281;SDS011;36176;51.506;10.272;2022-08-21T19:19:17;3.88;;;3.22;;
50281;SDS011;36176;51.506;10.272;2022-08-21T19:21:46;2.80;;;2.57;;
50281;SDS011;36176;51.506;10.272;2022-08-21T19:24:15;3.38;;;3.00;;
50281;SDS011;36176;51.506;10.272;2022-08-21T19:26:43;3.77;;;3.47;;
50281;SDS011;36176;51.506;10.272;2022-08-21T19:29:11;3.40;;;3.10;;
50281;SDS011;36176;51.506;10.272;2022-08-21T19:31:41;3.67;;;3.03;;
50281;SDS011;36176;51.506;10.272;2022-08-21T19:34:11;4.00;;;3.57;;
50281;SDS011;36176;51.506;10.272;2022-08-21T19:36:42;4.07;;;3.33;;
50281;SDS011;36176;51.506;10.272;2022-08-21T19:39:10;2.67;;;2.47;;
50281;SDS011;36176;51.506;10.272;2022-08-21T19:41:39;3.33;;;2.03;;
50281;SDS011;36176;51.506;10.272;2022-08-21T19:44:13;4.27;;;2.70;;
50281;SDS011;36176;51.506;10.272;2022-08-21T19:46:46;3.17;;;2.37;;
50281;SDS011;36176;51.506;10.272;2022-08-21T19:49:17;2.90;;;2.60;;
50281;SDS011;36176;51.506;10.272;2022-08-21T19:51:47;4.73;;;3.00;;
50281;SDS011;36176;51.506;10.272;2022-08-21T19:54:16;2.17;;;1.97;;
50281;SDS011;36176;51.506;10.272;2022-08-21T19:56:53;8.00;;;2.27;;
50281;SDS011;36176;51.506;10.272;2022-08-21T19:59:22;3.10;;;2.10;;
50281;SDS011;36176;51.506;10.272;2022-08-21T20:01:52;4.00;;;2.63;;
50281;SDS011;36176;51.506;10.272;2022-08-21T20:04:22;2.83;;;2.63;;
50281;SDS011;36176;51.506;10.272;2022-08-21T20:06:51;3.63;;;3.33;;
50281;SDS011;36176;51.506;10.272;2022-08-21T20:09:21;2.60;;;2.30;;
50281;SDS011;36176;51.506;10.272;2022-08-21T20:11:50;2.83;;;1.97;;
50281;SDS011;36176;51.506;10.272;2022-08-21T20:14:39;2.07;;;1.90;;
50281;SDS011;36176;51.506;10.272;2022-08-21T20:17:11;2.50;;;2.30;;
50281;SDS011;36176;51.506;10.272;2022-08-21T20:19:40;2.37;;;2.13;;
50281;SDS011;36176;51.506;10.272;2022-08-21T20:22:09;3.50;;;2.10;;
50281;SDS011;36176;51.506;10.272;2022-08-21T20:24:38;3.37;;;2.20;;
50281;SDS011;36176;51.506;10.272;2022-08-21T20:27:09;2.70;;;2.10;;
50281;SDS011;36176;51.506;10.272;2022-08-21T20:29:46;2.10;;;1.67;;
50281;SDS011;36176;51.506;10.272;2022-08-21T20:32:16;2.50;;;2.03;;
50281;SDS011;36176;51.506;10.272;2022-08-21T20:34:44;2.40;;;2.20;;
50281;SDS011;36176;51.506;10.272;2022-08-21T20:37:18;3.13;;;2.37;;
50281;SDS011;36176;51.506;10.272;2022-08-21T20:40:06;4.37;;;2.20;;
50281;SDS011;36176;51.506;10.272;2022-08-21T20:42:40;3.10;;;2.40;;